aviador You're here:

KBFD Decoded Metar

BRADFORD in PA, USA
Report Time2017-05-23 13:53:00
UTC Time2017-05-23 14:44:39
Flight Rules vfr VFR
Wind230° at 04 kt
W.Decomp.*RWY 23: 3.9 kt HW 0.8 kt RCW
RWY 32: 0.8 kt HW 3.9 kt LCW
W.Rank230° ranks 8
Current wind is below 230° avg. (6.4)
Visibility9999 m
Phenomena:N/A
Clouds:N/A
Expected CloudBase > 2,400 ft AGL from Temp-Dew spread
CeilingNone
Temp14°C (ISA +3)
Dew Point08°C (67% RH)
AAT12.1°C
QNH1016 hPa
Density Alt2,552 ft
Elevation2,123 ft
Report Wrong Elevation
Raw Report
METAR KBFD 231353Z AUTO 23004KT 10SM CLR 14/08 A2999 RMK AO2 SLP153
T01390083=

Extra information for KBFD:More info

Metar Taf Metar & Taf Last 4 Metars F.Rules Stats Wind Profile Meteogram Temp Stats Airport Information Weather charts Add Link Nearby VenuesMetar ALERT Operation Metar Decoded Social comments

AIRNAV info for KBFD